createdAt,value
2018-01-15T00:00:01.217Z,23.50
2018-01-15T00:01:01.229Z,23.30
2018-01-15T00:02:01.242Z,23.40
2018-01-15T00:03:01.256Z,22.90
2018-01-15T00:04:01.273Z,22.80
2018-01-15T00:05:01.290Z,23.10
2018-01-15T00:06:01.306Z,24.60
2018-01-15T00:07:01.328Z,23.70
2018-01-15T00:08:01.324Z,23.70
2018-01-15T00:09:01.339Z,23.10
2018-01-15T00:10:01.353Z,24.30
2018-01-15T00:11:01.366Z,23.30
2018-01-15T00:12:01.383Z,24.40
2018-01-15T00:13:01.397Z,23.30
2018-01-15T00:14:01.408Z,23.10
2018-01-15T00:15:01.417Z,24.00
2018-01-15T00:16:01.437Z,22.90
2018-01-15T00:17:01.449Z,23.40
2018-01-15T00:18:01.463Z,22.90
2018-01-15T00:19:01.475Z,22.60
2018-01-15T00:20:01.495Z,22.70
2018-01-15T00:21:01.505Z,22.20
2018-01-15T00:22:01.524Z,22.10
2018-01-15T00:23:01.534Z,22.50
2018-01-15T00:24:01.547Z,23.10
2018-01-15T00:25:01.559Z,22.30
2018-01-15T00:26:01.573Z,22.60
2018-01-15T00:27:01.588Z,21.70
2018-01-15T00:28:01.607Z,22.00
2018-01-15T00:29:01.617Z,23.70
2018-01-15T00:30:01.632Z,22.20
2018-01-15T00:31:01.643Z,22.60
2018-01-15T00:32:01.654Z,23.40
2018-01-15T00:33:01.666Z,23.00
2018-01-15T00:34:01.679Z,23.20
2018-01-15T00:35:01.698Z,22.50
2018-01-15T00:36:01.716Z,23.20
2018-01-15T00:37:01.748Z,22.60
2018-01-15T00:38:01.737Z,23.10
2018-01-15T00:39:01.752Z,22.70
2018-01-15T00:40:01.766Z,23.20
2018-01-15T00:41:01.776Z,21.80
2018-01-15T00:42:01.796Z,22.20
2018-01-15T00:43:01.809Z,22.70
2018-01-15T00:44:01.818Z,22.70
2018-01-15T00:45:01.840Z,22.90
2018-01-15T00:46:01.847Z,21.80
2018-01-15T00:47:01.862Z,22.10
2018-01-15T00:48:01.877Z,22.30
2018-01-15T00:49:01.892Z,21.90
2018-01-15T00:50:01.900Z,23.40
2018-01-15T00:51:01.915Z,23.50
2018-01-15T00:52:01.932Z,22.20
2018-01-15T00:53:01.945Z,23.20
2018-01-15T00:54:01.960Z,22.80
2018-01-15T00:55:01.971Z,22.60
2018-01-15T00:56:01.990Z,22.20
2018-01-15T00:57:02.000Z,22.50
2018-01-15T00:58:02.011Z,22.80
2018-01-15T00:59:02.027Z,22.80
2018-01-15T01:00:02.042Z,21.80
2018-01-15T01:01:02.052Z,21.80
2018-01-15T01:02:02.067Z,21.70
2018-01-15T01:03:02.084Z,22.40
2018-01-15T01:04:02.098Z,22.00
2018-01-15T01:05:02.107Z,21.40
2018-01-15T01:06:02.124Z,21.60
2018-01-15T01:07:02.140Z,23.20
2018-01-15T01:08:02.153Z,22.00
2018-01-15T01:09:02.168Z,22.20
2018-01-15T01:10:02.181Z,22.10
2018-01-15T01:11:02.194Z,22.10
2018-01-15T01:12:02.208Z,21.70
2018-01-15T01:13:02.222Z,20.90
2018-01-15T01:14:02.238Z,21.00
2018-01-15T01:15:02.244Z,21.20
2018-01-15T01:16:02.263Z,20.80
2018-01-15T01:17:02.283Z,21.50
2018-01-15T01:18:02.293Z,22.10
2018-01-15T01:19:02.304Z,21.00
2018-01-15T01:20:02.322Z,21.20
2018-01-15T01:21:02.331Z,21.90
2018-01-15T01:22:02.345Z,21.10
2018-01-15T01:23:02.357Z,20.20
2018-01-15T01:24:02.374Z,21.30
2018-01-15T01:25:02.390Z,20.60
2018-01-15T01:26:02.401Z,21.70
2018-01-15T01:27:02.432Z,20.40
2018-01-15T01:28:02.438Z,20.50
2018-01-15T01:29:02.451Z,19.80
2018-01-15T01:30:02.457Z,21.20
2018-01-15T01:31:02.472Z,20.20
2018-01-15T01:32:02.485Z,20.50
2018-01-15T01:33:02.495Z,19.70
2018-01-15T01:34:02.516Z,19.40
2018-01-15T01:35:02.527Z,20.40
2018-01-15T01:36:02.543Z,20.70
2018-01-15T01:37:02.560Z,20.50
2018-01-15T01:38:02.572Z,19.90
2018-01-15T01:39:02.590Z,20.40
2018-01-15T01:40:02.600Z,20.00
2018-01-15T01:41:02.613Z,20.20
2018-01-15T01:42:02.629Z,20.60
2018-01-15T01:43:02.648Z,20.20
2018-01-15T01:44:02.661Z,20.20
2018-01-15T01:45:02.676Z,19.20
2018-01-15T01:46:02.687Z,19.10
2018-01-15T01:47:02.697Z,19.50
2018-01-15T01:48:02.713Z,19.40
2018-01-15T01:49:02.729Z,20.10
2018-01-15T01:50:02.740Z,19.60
2018-01-15T01:51:02.757Z,19.80
2018-01-15T01:52:02.767Z,18.90
2018-01-15T01:53:02.785Z,19.10
2018-01-15T01:54:02.799Z,19.30
2018-01-15T01:55:02.810Z,18.60
2018-01-15T01:56:02.832Z,20.40
2018-01-15T01:57:02.846Z,19.30
2018-01-15T01:58:02.860Z,19.20
2018-01-15T01:59:02.871Z,19.40
2018-01-15T02:00:02.885Z,19.60
2018-01-15T02:01:02.902Z,19.60
2018-01-15T02:02:02.914Z,18.50
2018-01-15T02:03:02.929Z,19.60
2018-01-15T02:04:02.944Z,19.40
2018-01-15T02:05:02.965Z,19.00
2018-01-15T02:06:02.973Z,19.70
2018-01-15T02:07:02.984Z,19.40
2018-01-15T02:08:03.003Z,18.80
2018-01-15T02:09:03.013Z,18.60
2018-01-15T02:10:03.030Z,19.00
2018-01-15T02:11:03.042Z,20.20
2018-01-15T02:12:03.059Z,20.20
2018-01-15T02:13:03.076Z,19.80
2018-01-15T02:14:03.088Z,19.10
2018-01-15T02:15:03.105Z,19.30
2018-01-15T02:16:03.112Z,19.60
2018-01-15T02:17:03.131Z,20.00
2018-01-15T02:18:03.151Z,19.50
2018-01-15T02:19:03.157Z,19.60
2018-01-15T02:20:03.171Z,19.10
2018-01-15T02:21:03.196Z,19.30
2018-01-15T02:22:03.205Z,20.00
2018-01-15T02:23:03.217Z,20.20
2018-01-15T02:24:03.231Z,19.10
2018-01-15T02:25:03.249Z,19.20
2018-01-15T02:26:03.260Z,19.40
2018-01-15T02:27:03.274Z,19.30
2018-01-15T02:28:03.289Z,18.90
2018-01-15T02:29:03.304Z,19.60
2018-01-15T02:30:03.322Z,20.00
2018-01-15T02:31:03.334Z,19.30
2018-01-15T02:32:03.353Z,18.70
2018-01-15T02:33:03.361Z,20.10
2018-01-15T02:34:03.382Z,19.40
2018-01-15T02:35:03.394Z,19.70
2018-01-15T02:36:03.406Z,19.10
2018-01-15T02:37:03.418Z,18.80
2018-01-15T02:38:03.435Z,18.60
2018-01-15T02:39:03.448Z,19.30
2018-01-15T02:40:03.464Z,19.10
2018-01-15T02:41:03.481Z,19.00
2018-01-15T02:42:03.494Z,19.90
2018-01-15T02:43:03.505Z,19.40
2018-01-15T02:44:03.522Z,19.20
2018-01-15T02:45:03.533Z,19.90
2018-01-15T02:46:03.554Z,19.50
2018-01-15T02:47:03.570Z,19.10
2018-01-15T02:48:03.590Z,19.10
2018-01-15T02:49:03.597Z,18.70
2018-01-15T02:50:03.617Z,19.30
2018-01-15T02:51:03.627Z,19.30
2018-01-15T02:52:03.640Z,18.90
2018-01-15T02:53:03.655Z,18.90
2018-01-15T02:54:03.670Z,19.80
2018-01-15T02:55:03.685Z,19.30
2018-01-15T02:56:03.701Z,19.20
2018-01-15T02:57:03.718Z,19.40
2018-01-15T02:58:03.730Z,19.00
2018-01-15T02:59:03.745Z,19.70
2018-01-15T03:00:03.757Z,19.20
2018-01-15T03:01:03.774Z,19.70
2018-01-15T03:02:03.784Z,19.80
2018-01-15T03:03:03.807Z,19.90
2018-01-15T03:04:03.819Z,19.70
2018-01-15T03:05:03.826Z,19.70
2018-01-15T03:06:03.847Z,19.70
2018-01-15T03:07:03.861Z,20.50
2018-01-15T03:08:03.873Z,19.50
2018-01-15T03:09:03.900Z,18.80
2018-01-15T03:10:03.908Z,20.00
2018-01-15T03:11:03.917Z,19.60
2018-01-15T03:12:03.935Z,19.60
2018-01-15T03:13:03.955Z,20.10
2018-01-15T03:14:03.966Z,20.00
2018-01-15T03:15:03.980Z,19.90
2018-01-15T03:16:03.995Z,19.10
2018-01-15T03:17:04.008Z,19.20
2018-01-15T03:18:04.023Z,19.00
2018-01-15T03:19:04.038Z,19.00
2018-01-15T03:20:04.053Z,18.90
2018-01-15T03:21:04.067Z,19.00
2018-01-15T03:22:04.082Z,18.90
2018-01-15T03:23:04.098Z,19.60
2018-01-15T03:24:04.110Z,18.60
2018-01-15T03:25:04.130Z,19.10
2018-01-15T03:26:04.142Z,18.00
2018-01-15T03:27:04.157Z,18.30
2018-01-15T03:28:04.174Z,18.60
2018-01-15T03:29:04.187Z,19.40
2018-01-15T03:30:04.202Z,19.50
2018-01-15T03:31:04.218Z,19.30
2018-01-15T03:32:04.230Z,18.90
2018-01-15T03:33:04.244Z,17.40
2018-01-15T03:34:04.266Z,18.60
2018-01-15T03:35:04.275Z,18.50
2018-01-15T03:36:04.296Z,18.30
2018-01-15T03:37:04.310Z,18.10
2018-01-15T03:38:04.324Z,18.10
2018-01-15T03:39:04.334Z,17.60
2018-01-15T03:40:04.354Z,17.80
2018-01-15T03:41:04.366Z,18.20
2018-01-15T03:42:04.378Z,18.10
2018-01-15T03:43:04.394Z,17.70
2018-01-15T03:44:04.417Z,17.30
2018-01-15T03:45:04.430Z,17.60
2018-01-15T03:46:04.441Z,16.70
2018-01-15T03:47:04.455Z,17.90
2018-01-15T03:48:04.478Z,17.60
2018-01-15T03:49:04.484Z,17.70
2018-01-15T03:50:04.506Z,17.80
2018-01-15T03:51:04.514Z,17.90
2018-01-15T03:52:04.533Z,17.20
2018-01-15T03:53:04.548Z,18.50
2018-01-15T03:54:04.563Z,17.40
2018-01-15T03:55:04.576Z,17.30
2018-01-15T03:56:04.590Z,17.50
2018-01-15T03:57:04.604Z,17.60
2018-01-15T03:58:04.620Z,17.50
2018-01-15T03:59:04.641Z,16.80
2018-01-15T04:00:04.654Z,17.00
2018-01-15T04:01:04.665Z,17.50
2018-01-15T04:02:04.719Z,17.40
2018-01-15T04:03:04.696Z,17.50
2018-01-15T04:04:04.715Z,17.60
2018-01-15T04:05:04.730Z,17.20
2018-01-15T04:06:04.740Z,16.60
2018-01-15T04:07:04.757Z,18.10
2018-01-15T04:08:04.769Z,17.50
2018-01-15T04:09:04.787Z,17.30
2018-01-15T04:10:04.801Z,17.60
2018-01-15T04:11:04.820Z,16.90
2018-01-15T04:12:04.829Z,17.90
2018-01-15T04:13:04.847Z,17.50
2018-01-15T04:14:04.881Z,17.40
2018-01-15T04:15:04.881Z,16.90
2018-01-15T04:16:04.892Z,16.80
2018-01-15T04:17:04.912Z,18.00
2018-01-15T04:18:04.927Z,18.00
2018-01-15T04:19:04.935Z,18.40
2018-01-15T04:20:04.954Z,17.40
2018-01-15T04:21:04.978Z,17.20
2018-01-15T04:22:04.984Z,17.30
2018-01-15T04:23:05.001Z,17.30
2018-01-15T04:24:05.018Z,17.40
2018-01-15T04:25:05.031Z,17.10
2018-01-15T04:26:05.055Z,17.20
2018-01-15T04:27:05.064Z,17.50
2018-01-15T04:28:05.089Z,17.30
2018-01-15T04:29:05.094Z,17.20
2018-01-15T04:30:05.114Z,16.40
2018-01-15T04:31:05.124Z,17.30
2018-01-15T04:32:05.138Z,18.00
2018-01-15T04:33:05.157Z,16.90
2018-01-15T04:34:05.170Z,17.20
2018-01-15T04:35:05.188Z,17.70
2018-01-15T04:36:05.202Z,16.70
2018-01-15T04:37:05.220Z,17.70
2018-01-15T04:38:05.234Z,17.30
2018-01-15T04:39:05.250Z,17.10
2018-01-15T04:40:05.270Z,17.50
2018-01-15T04:41:05.279Z,17.40
2018-01-15T04:42:05.296Z,17.90
2018-01-15T04:43:05.306Z,17.70
2018-01-15T04:44:05.326Z,17.70
2018-01-15T04:45:05.344Z,17.40
2018-01-15T04:46:05.354Z,16.70
2018-01-15T04:47:05.369Z,17.20
2018-01-15T04:48:05.390Z,16.60
2018-01-15T04:49:05.405Z,17.50
2018-01-15T04:50:05.420Z,17.50
2018-01-15T04:51:05.469Z,17.80
2018-01-15T04:52:05.454Z,17.40
2018-01-15T04:53:05.463Z,16.80
2018-01-15T04:54:05.478Z,17.30
2018-01-15T04:55:05.496Z,17.20
2018-01-15T04:56:05.509Z,17.80
2018-01-15T04:57:05.524Z,17.10
2018-01-15T04:58:05.545Z,17.80
2018-01-15T04:59:05.557Z,17.90
2018-01-15T05:00:05.580Z,17.50
2018-01-15T05:01:05.587Z,17.50
2018-01-15T05:02:05.602Z,18.40
2018-01-15T05:03:05.629Z,17.40
2018-01-15T05:04:05.634Z,17.30
2018-01-15T05:05:05.651Z,17.00
2018-01-15T05:06:05.674Z,17.50
2018-01-15T05:07:05.687Z,17.30
2018-01-15T05:08:05.700Z,17.10
2018-01-15T05:09:05.721Z,17.10
2018-01-15T05:10:05.729Z,17.20
2018-01-15T05:11:05.745Z,17.20
2018-01-15T05:12:05.759Z,17.20
2018-01-15T05:13:05.789Z,17.50
2018-01-15T05:14:05.811Z,18.20
2018-01-15T05:15:05.814Z,17.80
2018-01-15T05:16:05.832Z,17.60
2018-01-15T05:17:05.848Z,18.40
2018-01-15T05:18:05.857Z,17.10
2018-01-15T05:19:05.871Z,17.50
2018-01-15T05:20:05.885Z,18.10
2018-01-15T05:21:05.901Z,17.90
2018-01-15T05:22:05.920Z,18.60
2018-01-15T05:23:05.937Z,16.80
2018-01-15T05:24:05.954Z,18.10
2018-01-15T05:25:05.971Z,17.90
2018-01-15T05:26:05.984Z,18.00
2018-01-15T05:27:05.998Z,17.70
2018-01-15T05:28:06.018Z,17.40
2018-01-15T05:29:06.039Z,18.00
2018-01-15T05:30:06.045Z,18.10
2018-01-15T05:31:06.059Z,17.90
2018-01-15T05:32:06.084Z,17.40
2018-01-15T05:33:06.090Z,17.80
2018-01-15T05:34:06.113Z,17.20
2018-01-15T05:35:06.133Z,18.40
2018-01-15T05:36:06.141Z,17.90
2018-01-15T05:37:06.210Z,18.40
2018-01-15T05:38:06.179Z,17.20
2018-01-15T05:39:06.183Z,17.30
2018-01-15T05:40:06.215Z,17.80
2018-01-15T05:41:06.217Z,17.50
2018-01-15T05:42:06.234Z,18.40
2018-01-15T05:43:06.263Z,18.30
2018-01-15T05:44:06.267Z,17.20
2018-01-15T05:45:06.282Z,17.60
2018-01-15T05:46:06.301Z,17.70
2018-01-15T05:47:06.319Z,17.10
2018-01-15T05:48:06.326Z,17.90
2018-01-15T05:49:06.346Z,17.70
2018-01-15T05:50:06.358Z,18.00
2018-01-15T05:51:06.373Z,18.00
2018-01-15T05:52:06.389Z,18.10
2018-01-15T05:53:06.408Z,17.90
2018-01-15T05:54:06.430Z,17.60
2018-01-15T05:55:06.436Z,17.30
2018-01-15T05:56:06.457Z,16.90
2018-01-15T05:57:06.467Z,17.70
2018-01-15T05:58:06.486Z,18.10
2018-01-15T05:59:06.502Z,18.20
2018-01-15T06:00:06.524Z,17.60
2018-01-15T06:01:06.536Z,17.80
2018-01-15T06:02:06.548Z,17.80
2018-01-15T06:03:06.562Z,18.00
2018-01-15T06:04:06.579Z,18.00
2018-01-15T06:05:06.597Z,18.10
2018-01-15T06:06:06.618Z,17.60
2018-01-15T06:07:06.625Z,17.10
2018-01-15T06:08:06.645Z,17.70
2018-01-15T06:09:06.664Z,18.00
2018-01-15T06:10:06.676Z,17.60
2018-01-15T06:11:06.686Z,18.10
2018-01-15T06:12:06.705Z,17.40
2018-01-15T06:13:06.720Z,17.30
2018-01-15T06:14:06.736Z,18.30
2018-01-15T06:15:06.750Z,18.00
2018-01-15T06:16:06.767Z,17.90
2018-01-15T06:17:06.784Z,18.20
2018-01-15T06:18:06.801Z,18.50
2018-01-15T06:19:06.813Z,18.00
2018-01-15T06:20:06.833Z,17.30
2018-01-15T06:21:06.843Z,18.40
2018-01-15T06:22:06.861Z,18.20
2018-01-15T06:23:06.879Z,18.20
2018-01-15T06:24:06.889Z,17.70
2018-01-15T06:25:06.906Z,17.90
2018-01-15T06:26:06.921Z,17.50
2018-01-15T06:27:06.943Z,18.20
2018-01-15T06:28:06.953Z,18.40
2018-01-15T06:29:06.974Z,17.60
2018-01-15T06:30:06.991Z,17.80
2018-01-15T06:31:07.010Z,18.50
2018-01-15T06:32:07.018Z,17.80
2018-01-15T06:33:07.035Z,17.90
2018-01-15T06:34:07.050Z,18.00
2018-01-15T06:35:07.066Z,18.30
2018-01-15T06:36:07.088Z,18.00
2018-01-15T06:37:07.093Z,17.70
2018-01-15T06:38:07.108Z,18.80
2018-01-15T06:39:07.132Z,18.00
2018-01-15T06:40:07.145Z,17.60
2018-01-15T06:41:07.160Z,18.20
2018-01-15T06:42:07.176Z,18.30
2018-01-15T06:43:07.189Z,17.60
2018-01-15T06:44:07.209Z,18.00
2018-01-15T06:45:07.218Z,18.60
2018-01-15T06:46:07.242Z,18.20
2018-01-15T06:47:07.252Z,17.60
2018-01-15T06:48:07.270Z,18.40
2018-01-15T06:49:07.282Z,18.10
2018-01-15T06:50:07.299Z,18.40
2018-01-15T06:51:07.312Z,17.10
2018-01-15T06:52:07.323Z,18.10
2018-01-15T06:53:07.351Z,18.30
2018-01-15T06:54:07.372Z,17.80
2018-01-15T06:55:07.368Z,17.80
2018-01-15T06:56:07.388Z,17.40
2018-01-15T06:57:07.402Z,17.60
2018-01-15T06:58:07.420Z,18.40
2018-01-15T06:59:07.440Z,18.00
2018-01-15T07:00:07.451Z,18.00
2018-01-15T07:01:07.469Z,18.00
2018-01-15T07:02:07.478Z,17.80
2018-01-15T07:03:07.497Z,17.60
2018-01-15T07:04:07.514Z,17.60
2018-01-15T07:05:07.526Z,17.50
2018-01-15T07:06:07.543Z,17.20
2018-01-15T07:07:07.562Z,16.90
2018-01-15T07:08:07.586Z,17.60
2018-01-15T07:09:07.593Z,17.40
2018-01-15T07:10:07.607Z,16.60
2018-01-15T07:11:07.614Z,17.50
2018-01-15T07:12:07.625Z,17.40
2018-01-15T07:13:07.644Z,17.20
2018-01-15T07:14:07.658Z,17.50
2018-01-15T07:15:07.674Z,17.70
2018-01-15T07:16:07.700Z,17.10
2018-01-15T07:17:07.720Z,17.60
2018-01-15T07:18:07.726Z,17.70
2018-01-15T07:19:07.760Z,17.50
2018-01-15T07:20:07.751Z,17.20
2018-01-15T07:21:07.764Z,16.70
2018-01-15T07:22:07.788Z,16.90
2018-01-15T07:23:07.800Z,17.00
2018-01-15T07:24:07.829Z,17.00
2018-01-15T07:25:07.831Z,16.40
2018-01-15T07:26:07.842Z,16.70
2018-01-15T07:27:07.856Z,16.70
2018-01-15T07:28:07.886Z,17.00
2018-01-15T07:29:07.924Z,16.90
2018-01-15T07:30:07.908Z,16.60
2018-01-15T07:31:07.926Z,16.80
2018-01-15T07:32:07.935Z,16.20
2018-01-15T07:33:07.963Z,16.20
2018-01-15T07:34:07.970Z,17.00
2018-01-15T07:35:07.994Z,17.00
2018-01-15T07:36:07.997Z,17.40
2018-01-15T07:37:08.015Z,16.90
2018-01-15T07:38:08.032Z,16.80
2018-01-15T07:39:08.047Z,17.00
2018-01-15T07:40:08.056Z,16.90
2018-01-15T07:41:08.075Z,17.30
2018-01-15T07:42:08.097Z,17.10
2018-01-15T07:43:08.104Z,16.90
2018-01-15T07:44:08.124Z,16.80
2018-01-15T07:45:08.144Z,16.50
2018-01-15T07:46:08.189Z,16.70
2018-01-15T07:47:08.172Z,16.60
2018-01-15T07:48:08.189Z,16.70
2018-01-15T07:49:08.203Z,17.40
2018-01-15T07:50:08.213Z,17.00
2018-01-15T07:51:08.225Z,16.70
2018-01-15T07:52:08.246Z,16.20
2018-01-15T07:53:08.265Z,16.40
2018-01-15T07:54:08.277Z,16.70
2018-01-15T07:55:08.296Z,16.20
2018-01-15T07:56:08.310Z,16.20
2018-01-15T07:57:08.325Z,16.90
2018-01-15T07:58:08.335Z,15.80
2018-01-15T07:59:08.352Z,16.50
2018-01-15T08:00:08.370Z,15.70
2018-01-15T08:01:08.386Z,16.40
2018-01-15T08:02:08.396Z,16.50
2018-01-15T08:03:08.428Z,16.40
2018-01-15T08:04:08.440Z,16.80
2018-01-15T08:05:08.457Z,16.40
2018-01-15T08:06:08.466Z,16.50
2018-01-15T08:07:08.480Z,16.40
2018-01-15T08:08:08.503Z,16.40
2018-01-15T08:09:08.514Z,16.20
2018-01-15T08:10:08.526Z,16.10
2018-01-15T08:11:08.546Z,17.00
2018-01-15T08:12:08.550Z,15.20
2018-01-15T08:13:08.566Z,15.70
2018-01-15T08:14:08.588Z,16.40
2018-01-15T08:15:08.616Z,16.50
2018-01-15T08:16:08.641Z,16.10
2018-01-15T08:17:08.646Z,16.10
2018-01-15T08:18:08.644Z,16.50
2018-01-15T08:19:08.678Z,16.00
2018-01-15T08:20:08.694Z,16.40
2018-01-15T08:21:08.709Z,16.70
2018-01-15T08:22:08.706Z,16.20
2018-01-15T08:23:08.719Z,15.80
2018-01-15T08:24:08.748Z,16.80
2018-01-15T08:25:08.759Z,15.80
2018-01-15T08:26:08.767Z,16.10
2018-01-15T08:27:08.782Z,16.10
2018-01-15T08:28:08.814Z,16.00
2018-01-15T08:29:08.816Z,16.50
2018-01-15T08:30:08.833Z,16.50
2018-01-15T08:31:08.846Z,16.00
2018-01-15T08:32:08.876Z,15.90
2018-01-15T08:33:08.874Z,15.70
2018-01-15T08:34:08.922Z,16.30
2018-01-15T08:35:08.917Z,16.50
2018-01-15T08:36:08.928Z,15.60
2018-01-15T08:37:08.957Z,15.40
2018-01-15T08:38:09.012Z,15.10
2018-01-15T08:39:08.970Z,15.90
2018-01-15T08:40:08.997Z,15.70
2018-01-15T08:41:09.000Z,16.20
2018-01-15T08:42:09.046Z,16.00
2018-01-15T08:43:09.037Z,15.70
2018-01-15T08:44:09.060Z,16.00
2018-01-15T08:45:09.066Z,15.70
2018-01-15T08:46:09.086Z,15.20
2018-01-15T08:47:09.094Z,15.60
2018-01-15T08:48:09.123Z,15.50
2018-01-15T08:49:09.134Z,14.90
2018-01-15T08:50:09.164Z,15.00
2018-01-15T08:51:09.165Z,14.50
2018-01-15T08:52:09.185Z,14.40
2018-01-15T08:53:09.188Z,14.90
2018-01-15T08:54:09.203Z,15.20
2018-01-15T08:55:09.218Z,15.40
2018-01-15T08:56:09.230Z,14.90
2018-01-15T08:57:09.245Z,14.80
2018-01-15T08:58:09.272Z,14.90
2018-01-15T08:59:09.314Z,15.30
2018-01-15T09:00:09.293Z,18.90
2018-01-15T09:01:09.334Z,15.00
2018-01-15T09:02:09.340Z,16.60
2018-01-15T09:03:09.358Z,14.60
2018-01-15T09:04:09.372Z,14.70
2018-01-15T09:05:09.380Z,14.10
2018-01-15T09:06:09.396Z,14.20
2018-01-15T09:07:09.431Z,14.80
2018-01-15T09:08:09.431Z,14.50
2018-01-15T09:09:09.451Z,14.60
2018-01-15T09:10:09.465Z,13.80
2018-01-15T09:11:09.478Z,14.40
2018-01-15T09:12:09.502Z,13.50
2018-01-15T09:13:09.510Z,13.50
2018-01-15T09:14:09.518Z,13.70
2018-01-15T09:15:09.542Z,12.80
2018-01-15T09:16:09.557Z,13.30
2018-01-15T09:17:09.573Z,13.60
2018-01-15T09:18:09.591Z,12.90
2018-01-15T09:19:09.598Z,13.10
2018-01-15T09:20:09.610Z,13.60
2018-01-15T09:21:09.674Z,13.30
2018-01-15T09:22:09.664Z,13.30
2018-01-15T09:23:09.675Z,13.40
2018-01-15T09:24:09.694Z,12.80
2018-01-15T09:25:09.701Z,12.70
2018-01-15T09:26:09.709Z,12.50
2018-01-15T09:27:09.734Z,12.70
2018-01-15T09:28:09.762Z,12.30
2018-01-15T09:29:09.786Z,12.40
2018-01-15T09:30:09.809Z,12.60
2018-01-15T09:31:09.802Z,12.40
2018-01-15T09:32:09.840Z,12.10
2018-01-15T09:33:09.833Z,12.40
2018-01-15T09:34:09.858Z,12.00
2018-01-15T09:35:09.865Z,12.00
2018-01-15T09:36:10.532Z,12.00
2018-01-15T09:37:09.889Z,11.40
2018-01-15T09:38:09.909Z,11.40
2018-01-15T09:39:09.948Z,11.90
2018-01-15T09:40:09.951Z,11.40
2018-01-15T09:41:09.975Z,11.10
2018-01-15T09:42:09.977Z,10.70
2018-01-15T09:43:09.986Z,10.60
2018-01-15T09:44:10.016Z,11.10
2018-01-15T09:45:10.027Z,10.80
2018-01-15T09:46:10.050Z,10.10
2018-01-15T09:47:10.064Z,10.90
2018-01-15T09:48:10.077Z,10.20
2018-01-15T09:49:10.100Z,10.30
2018-01-15T09:50:10.113Z,10.20
2018-01-15T09:51:10.149Z,9.40
2018-01-15T09:52:10.153Z,9.70
2018-01-15T09:53:10.163Z,9.80
2018-01-15T09:54:10.179Z,9.10
2018-01-15T09:55:10.190Z,9.00
2018-01-15T09:56:10.205Z,9.70
2018-01-15T09:57:10.225Z,9.30
2018-01-15T09:58:10.251Z,9.30
2018-01-15T09:59:10.258Z,8.80
2018-01-15T10:00:10.321Z,8.90
2018-01-15T10:01:10.298Z,8.60
2018-01-15T10:02:10.306Z,8.60
2018-01-15T10:03:10.326Z,8.90
2018-01-15T10:04:10.338Z,9.20
2018-01-15T10:05:10.371Z,8.80
2018-01-15T10:06:10.396Z,9.10
2018-01-15T10:07:10.389Z,9.30
2018-01-15T10:08:10.407Z,9.40
2018-01-15T10:09:10.433Z,9.50
2018-01-15T10:10:10.439Z,9.20
2018-01-15T10:11:10.461Z,9.20
2018-01-15T10:12:10.616Z,9.20
2018-01-15T10:13:10.505Z,9.10
2018-01-15T10:14:10.513Z,8.50
2018-01-15T10:15:10.533Z,9.10
2018-01-15T10:16:10.552Z,9.00
2018-01-15T10:17:10.565Z,9.10
2018-01-15T10:18:10.579Z,9.10
2018-01-15T10:19:10.604Z,8.70
2018-01-15T10:20:10.617Z,8.90
2018-01-15T10:21:10.635Z,8.50
2018-01-15T10:22:10.639Z,9.10
2018-01-15T10:23:10.661Z,8.80
2018-01-15T10:24:10.688Z,8.60
2018-01-15T10:25:10.692Z,8.70
2018-01-15T10:26:10.721Z,8.70
2018-01-15T10:27:10.769Z,8.60
2018-01-15T10:28:10.762Z,8.40
2018-01-15T10:29:10.757Z,8.60
2018-01-15T10:30:10.776Z,8.80
2018-01-15T10:31:10.801Z,8.60
2018-01-15T10:32:10.808Z,8.80
2018-01-15T10:33:10.838Z,8.60
2018-01-15T10:34:10.849Z,8.20
2018-01-15T10:35:10.867Z,8.50
2018-01-15T10:36:10.879Z,8.10
2018-01-15T10:37:10.895Z,8.00
2018-01-15T10:38:10.917Z,7.80
2018-01-15T10:39:10.937Z,6.70
2018-01-15T10:40:10.950Z,6.80
2018-01-15T10:41:10.973Z,6.80
2018-01-15T10:42:10.983Z,7.00
2018-01-15T10:43:11.004Z,6.90
2018-01-15T10:44:11.023Z,6.50
2018-01-15T10:45:11.047Z,6.70
2018-01-15T10:46:11.060Z,6.60
2018-01-15T10:47:11.067Z,7.00
2018-01-15T10:48:11.090Z,7.10
2018-01-15T10:49:11.169Z,6.60
2018-01-15T10:50:11.174Z,6.20
2018-01-15T10:51:11.144Z,6.20
2018-01-15T10:52:11.165Z,6.10
2018-01-15T10:53:11.171Z,6.10
2018-01-15T10:54:11.196Z,6.30
2018-01-15T10:55:11.224Z,6.30
2018-01-15T10:56:11.225Z,6.70
2018-01-15T10:57:11.290Z,6.30
2018-01-15T10:58:11.263Z,6.80
2018-01-15T10:59:11.287Z,6.10
2018-01-15T11:00:11.313Z,6.10
2018-01-15T11:01:11.318Z,5.90
2018-01-15T11:02:11.381Z,6.40
2018-01-15T11:03:11.365Z,6.20
2018-01-15T11:04:11.370Z,6.40
2018-01-15T11:05:11.392Z,6.70
2018-01-15T11:06:11.409Z,6.30
2018-01-15T11:07:11.426Z,6.10
2018-01-15T11:08:11.441Z,6.50
2018-01-15T11:09:11.459Z,6.40
2018-01-15T11:10:11.477Z,6.40
2018-01-15T11:11:11.493Z,6.40
2018-01-15T11:12:11.513Z,6.00
2018-01-15T11:13:11.530Z,6.10
2018-01-15T11:14:11.550Z,6.70
2018-01-15T11:15:11.569Z,6.00
2018-01-15T11:16:11.583Z,6.30
2018-01-15T11:17:11.604Z,7.20
2018-01-15T11:18:11.616Z,7.20
2018-01-15T11:19:11.642Z,7.20
2018-01-15T11:20:11.654Z,7.10
2018-01-15T11:21:11.669Z,6.90
2018-01-15T11:22:11.684Z,6.30
2018-01-15T11:23:11.719Z,6.80
2018-01-15T11:24:11.723Z,6.60
2018-01-15T11:25:11.747Z,6.50
2018-01-15T11:26:11.768Z,6.60
2018-01-15T11:27:11.774Z,6.00
2018-01-15T11:28:11.796Z,6.20
2018-01-15T11:29:11.815Z,6.30
2018-01-15T11:30:11.833Z,6.00
2018-01-15T11:31:11.845Z,6.50
2018-01-15T11:32:11.869Z,6.30
2018-01-15T11:33:11.882Z,6.30
2018-01-15T11:34:11.902Z,6.20
2018-01-15T11:35:11.974Z,6.00
2018-01-15T11:36:11.962Z,6.20
2018-01-15T11:37:11.975Z,6.50
2018-01-15T11:38:11.972Z,7.50
2018-01-15T11:39:11.984Z,8.90
2018-01-15T11:40:12.002Z,8.60
2018-01-15T11:41:12.082Z,7.90
2018-01-15T11:42:12.038Z,6.80
2018-01-15T11:43:12.074Z,6.40
2018-01-15T11:44:12.101Z,6.00
2018-01-15T11:45:13.059Z,6.30
2018-01-15T11:46:12.643Z,6.20
2018-01-15T11:47:12.130Z,5.40
2018-01-15T11:48:12.188Z,5.50
2018-01-15T11:49:12.179Z,5.50
2018-01-15T11:50:12.204Z,6.10
2018-01-15T11:51:12.218Z,5.70
2018-01-15T11:52:12.221Z,5.80
2018-01-15T11:53:12.236Z,6.20
2018-01-15T11:54:12.286Z,6.60
2018-01-15T11:55:12.268Z,7.00
2018-01-15T11:56:12.282Z,7.00
2018-01-15T11:57:12.298Z,6.60
2018-01-15T11:58:12.325Z,6.50
2018-01-15T11:59:12.391Z,6.30
2018-01-15T12:00:12.363Z,7.20
2018-01-15T12:01:12.368Z,6.20
2018-01-15T12:02:12.406Z,5.90
2018-01-15T12:03:12.415Z,6.80
2018-01-15T12:04:12.426Z,6.90
2018-01-15T12:05:12.438Z,6.60
2018-01-15T12:06:12.465Z,6.60
2018-01-15T12:07:12.496Z,6.40
2018-01-15T12:08:12.514Z,6.50
2018-01-15T12:09:12.508Z,6.40
2018-01-15T12:10:12.527Z,6.50
2018-01-15T12:11:12.558Z,6.90
2018-01-15T12:12:12.564Z,7.30
2018-01-15T12:13:12.583Z,7.20
2018-01-15T12:14:12.653Z,6.60
2018-01-15T12:15:12.615Z,6.70
2018-01-15T12:16:12.639Z,6.70
2018-01-15T12:17:12.660Z,6.30
2018-01-15T12:18:12.669Z,5.90
2018-01-15T12:19:12.706Z,6.70
2018-01-15T12:20:12.709Z,6.70
2018-01-15T12:21:12.727Z,6.50
2018-01-15T12:22:12.746Z,6.20
2018-01-15T12:23:12.762Z,6.00
2018-01-15T12:24:12.784Z,6.00
2018-01-15T12:25:12.795Z,5.40
2018-01-15T12:26:12.813Z,5.00
2018-01-15T12:27:12.831Z,4.80
2018-01-15T12:28:12.849Z,4.90
2018-01-15T12:29:12.867Z,5.00
2018-01-15T12:30:12.880Z,5.40
2018-01-15T12:31:12.900Z,5.20
2018-01-15T12:32:12.919Z,5.20
2018-01-15T12:33:12.933Z,4.50
2018-01-15T12:34:12.951Z,5.10
2018-01-15T12:35:12.981Z,5.50
2018-01-15T12:36:12.986Z,4.80
2018-01-15T12:37:13.012Z,5.00
2018-01-15T12:38:13.031Z,4.80
2018-01-15T12:39:13.045Z,4.50
2018-01-15T12:40:13.084Z,4.60
2018-01-15T12:41:13.077Z,4.60
2018-01-15T12:42:13.109Z,4.30
2018-01-15T12:43:13.120Z,4.40
2018-01-15T12:44:13.128Z,4.30
2018-01-15T12:45:13.157Z,4.00
2018-01-15T12:46:13.166Z,4.10
2018-01-15T12:47:13.191Z,4.30
2018-01-15T12:48:13.201Z,4.40
2018-01-15T12:49:13.219Z,4.60
2018-01-15T12:50:13.246Z,3.90
2018-01-15T12:51:13.254Z,4.20
2018-01-15T12:52:13.271Z,4.20
2018-01-15T12:53:13.296Z,4.00
2018-01-15T12:54:13.305Z,3.90
2018-01-15T12:55:13.324Z,4.00
2018-01-15T12:56:13.342Z,4.10
2018-01-15T12:57:13.369Z,4.30
2018-01-15T12:58:13.384Z,4.30